createdAt,value
2023-11-03T00:01:35.866Z,11.99
2023-11-03T00:04:40.301Z,11.97
2023-11-03T00:07:42.608Z,11.95
2023-11-03T00:10:45.099Z,11.98
2023-11-03T00:13:46.755Z,11.96
2023-11-03T00:16:48.423Z,11.96
2023-11-03T00:19:50.167Z,11.99
2023-11-03T00:22:51.932Z,11.97
2023-11-03T00:25:53.573Z,11.95
2023-11-03T00:28:55.287Z,12.01
2023-11-03T00:31:57.200Z,12.05
2023-11-03T00:34:58.879Z,11.97
2023-11-03T00:38:01.463Z,11.99
2023-11-03T00:41:03.319Z,11.94
2023-11-03T00:44:05.230Z,11.88
2023-11-03T00:47:07.314Z,11.94
2023-11-03T00:50:10.702Z,11.93
2023-11-03T00:53:12.434Z,11.83
2023-11-03T00:56:15.151Z,11.86
2023-11-03T00:59:18.271Z,11.92
2023-11-03T01:02:20.095Z,11.99
2023-11-03T01:05:23.459Z,12.05
2023-11-03T01:08:25.196Z,12.07
2023-11-03T01:11:27.832Z,12.05
2023-11-03T01:14:34.029Z,11.98
2023-11-03T01:17:36.733Z,11.93
2023-11-03T01:20:38.644Z,11.96
2023-11-03T01:23:44.176Z,11.95
2023-11-03T01:26:45.959Z,12.11
2023-11-03T01:29:47.628Z,12.37
2023-11-03T01:32:49.535Z,12.07
2023-11-03T01:35:51.254Z,11.99
2023-11-03T01:38:53.179Z,11.80
2023-11-03T01:41:54.837Z,11.78
2023-11-03T01:44:56.755Z,11.75
2023-11-03T01:47:58.716Z,11.76
2023-11-03T01:51:02.507Z,11.73
2023-11-03T01:54:05.864Z,11.78
2023-11-03T01:57:07.581Z,11.76
2023-11-03T02:00:14.572Z,11.69
2023-11-03T02:03:16.553Z,11.72
2023-11-03T02:06:18.325Z,11.71
2023-11-03T02:09:20.503Z,11.71
2023-11-03T02:12:22.456Z,11.71
2023-11-03T02:15:24.407Z,11.55
2023-11-03T02:18:26.461Z,11.52
2023-11-03T02:21:28.440Z,11.46
2023-11-03T02:24:30.162Z,11.56
2023-11-03T02:27:31.993Z,11.46
2023-11-03T02:30:33.676Z,11.54
2023-11-03T02:33:35.339Z,11.52
2023-11-03T02:36:37.332Z,11.48
2023-11-03T02:39:41.560Z,11.43
2023-11-03T02:42:43.346Z,11.24
2023-11-03T02:45:45.123Z,11.28
2023-11-03T02:48:47.015Z,11.34
2023-11-03T02:51:48.791Z,11.38
2023-11-03T02:54:50.489Z,11.37
2023-11-03T02:57:52.177Z,11.29
2023-11-03T03:00:54.567Z,11.29
2023-11-03T03:03:56.417Z,11.30
2023-11-03T03:06:58.197Z,11.30
2023-11-03T03:09:59.900Z,11.27
2023-11-03T03:13:03.890Z,11.26
2023-11-03T03:16:06.201Z,11.14
2023-11-03T03:19:07.890Z,11.10
2023-11-03T03:22:09.633Z,11.06
2023-11-03T03:25:11.423Z,10.87
2023-11-03T03:28:13.258Z,10.92
2023-11-03T03:31:14.992Z,10.85
2023-11-03T03:34:16.991Z,10.86
2023-11-03T03:37:18.762Z,10.83
2023-11-03T03:40:20.427Z,10.81
2023-11-03T03:43:22.150Z,10.91
2023-11-03T03:46:23.860Z,10.84
2023-11-03T03:49:25.574Z,10.87
2023-11-03T03:52:27.249Z,10.99
2023-11-03T03:55:28.889Z,10.99
2023-11-03T03:58:30.680Z,11.03
2023-11-03T04:01:32.402Z,11.08
2023-11-03T04:04:34.288Z,11.13
2023-11-03T04:07:36.129Z,11.27
2023-11-03T04:10:37.918Z,11.28
2023-11-03T04:13:39.891Z,11.25
2023-11-03T04:16:41.578Z,11.25
2023-11-03T04:19:43.252Z,11.14
2023-11-03T04:22:45.031Z,11.14
2023-11-03T04:25:46.916Z,11.13
2023-11-03T04:28:48.713Z,11.12
2023-11-03T04:31:50.891Z,11.17
2023-11-03T04:34:52.709Z,11.17
2023-11-03T04:37:55.439Z,11.09
2023-11-03T04:40:57.152Z,11.14
2023-11-03T04:43:58.877Z,11.12
2023-11-03T04:47:00.613Z,11.23
2023-11-03T04:50:02.526Z,11.29
2023-11-03T04:53:04.377Z,11.32
2023-11-03T04:56:06.527Z,11.38
2023-11-03T04:59:09.144Z,11.49
2023-11-03T05:02:11.241Z,11.43
2023-11-03T05:05:12.936Z,11.53
2023-11-03T05:08:14.702Z,11.57
2023-11-03T05:11:16.421Z,11.53
2023-11-03T05:14:18.086Z,11.53
2023-11-03T05:17:19.769Z,11.62
2023-11-03T05:20:21.799Z,11.67
2023-11-03T05:23:23.493Z,11.72
2023-11-03T05:26:25.632Z,11.72
2023-11-03T05:29:28.252Z,11.86
2023-11-03T05:32:30.285Z,11.84
2023-11-03T05:35:31.969Z,11.80
2023-11-03T05:38:34.738Z,11.80
2023-11-03T05:41:36.830Z,11.88
2023-11-03T05:44:38.524Z,11.94
2023-11-03T05:47:40.277Z,12.07
2023-11-03T05:50:42.002Z,12.17
2023-11-03T05:53:43.758Z,12.22
2023-11-03T05:56:45.608Z,12.29
2023-11-03T05:59:47.328Z,12.39
2023-11-03T06:02:50.038Z,12.42
2023-11-03T06:05:51.928Z,12.43
2023-11-03T06:08:54.209Z,12.39
2023-11-03T06:11:55.911Z,12.43
2023-11-03T06:14:57.586Z,12.49
2023-11-03T06:17:59.352Z,12.51
2023-11-03T06:21:01.206Z,12.61
2023-11-03T06:24:02.977Z,12.67
2023-11-03T06:27:04.737Z,12.69
2023-11-03T06:30:07.939Z,12.69
2023-11-03T06:33:09.939Z,12.77
2023-11-03T06:36:11.762Z,12.84
2023-11-03T06:39:13.554Z,12.92
2023-11-03T06:42:15.390Z,13.02
2023-11-03T06:45:17.527Z,13.08
2023-11-03T06:48:19.253Z,13.18
2023-11-03T06:51:21.183Z,13.34
2023-11-03T06:54:23.068Z,13.63
2023-11-03T06:57:24.930Z,13.96
2023-11-03T07:00:26.705Z,14.05
2023-11-03T07:03:28.616Z,13.98
2023-11-03T07:06:30.838Z,13.88
2023-11-03T07:09:33.383Z,13.83
2023-11-03T07:12:35.102Z,13.81
2023-11-03T07:15:37.798Z,13.88
2023-11-03T07:18:40.182Z,13.93
2023-11-03T07:21:41.905Z,13.98
2023-11-03T07:24:46.412Z,14.03
2023-11-03T07:27:48.521Z,14.10
2023-11-03T07:30:51.783Z,13.97
2023-11-03T07:33:55.647Z,14.05
2023-11-03T07:36:58.693Z,13.98
2023-11-03T07:40:00.804Z,14.06
2023-11-03T07:43:02.615Z,14.06
2023-11-03T07:46:04.679Z,14.09
2023-11-03T07:49:06.561Z,14.10
2023-11-03T07:52:08.351Z,14.15
2023-11-03T07:55:12.997Z,14.02
2023-11-03T07:58:15.165Z,13.77
2023-11-03T08:01:17.473Z,13.31
2023-11-03T08:04:19.274Z,12.71
2023-11-03T08:07:21.033Z,12.37
2023-11-03T08:10:22.818Z,12.46
2023-11-03T08:13:28.462Z,12.52
2023-11-03T08:16:30.204Z,12.75
2023-11-03T08:19:32.011Z,13.04
2023-11-03T08:22:34.363Z,13.45
2023-11-03T08:25:36.275Z,13.52
2023-11-03T08:28:38.284Z,13.26
2023-11-03T08:31:40.020Z,13.09
2023-11-03T08:34:41.870Z,12.83
2023-11-03T08:37:43.815Z,12.60
2023-11-03T08:40:46.867Z,12.42
2023-11-03T08:43:49.140Z,12.44
2023-11-03T08:46:52.042Z,12.29
2023-11-03T08:49:55.329Z,12.25
2023-11-03T08:52:57.720Z,12.42
2023-11-03T08:56:02.087Z,12.42
2023-11-03T08:59:05.147Z,12.49
2023-11-03T09:02:07.840Z,12.57
2023-11-03T09:05:12.520Z,12.46
2023-11-03T09:08:16.121Z,12.45
2023-11-03T09:11:18.778Z,12.65
2023-11-03T09:14:21.606Z,12.68
2023-11-03T09:17:24.436Z,12.72
2023-11-03T09:20:27.451Z,12.82
2023-11-03T09:23:30.315Z,12.98
2023-11-03T09:26:32.059Z,13.25
2023-11-03T09:29:33.659Z,13.58
2023-11-03T09:32:36.270Z,13.72
2023-11-03T09:35:38.081Z,13.89
2023-11-03T09:38:40.127Z,13.95
2023-11-03T09:41:58.848Z,14.00
2023-11-03T09:45:00.837Z,14.21
2023-11-03T09:48:05.686Z,14.16
2023-11-03T09:51:08.158Z,14.08
2023-11-03T09:54:10.144Z,13.30
2023-11-03T09:57:13.326Z,12.88
2023-11-03T10:00:20.662Z,12.97
2023-11-03T10:03:22.320Z,12.79
2023-11-03T10:06:24.360Z,12.84
2023-11-03T10:09:25.997Z,12.95
2023-11-03T10:12:28.062Z,12.81
2023-11-03T10:15:31.043Z,12.79
2023-11-03T10:18:32.737Z,13.00
2023-11-03T10:21:34.359Z,12.91
2023-11-03T10:24:37.430Z,12.73
2023-11-03T10:27:39.954Z,12.46
2023-11-03T10:30:42.517Z,12.31
2023-11-03T10:33:45.267Z,12.31
2023-11-03T10:36:52.597Z,12.35
2023-11-03T10:39:55.058Z,12.37
2023-11-03T10:42:59.615Z,12.44
2023-11-03T10:46:12.240Z,12.58
2023-11-03T10:49:34.052Z,12.53
2023-11-03T10:52:50.600Z,12.57
2023-11-03T10:56:22.237Z,12.53
2023-11-03T10:59:34.564Z,12.51
2023-11-03T11:03:11.292Z,12.53
2023-11-03T11:06:21.864Z,12.57
2023-11-03T11:09:38.245Z,12.49
2023-11-03T11:12:48.566Z,12.59
2023-11-03T11:16:04.062Z,12.46
2023-11-03T11:19:11.635Z,12.65
2023-11-03T11:22:20.361Z,12.50
2023-11-03T11:25:22.191Z,12.66
2023-11-03T11:28:36.732Z,12.55
2023-11-03T11:31:39.127Z,12.63
2023-11-03T11:34:42.771Z,12.62
2023-11-03T11:37:45.244Z,12.65
2023-11-03T11:40:47.546Z,12.77
2023-11-03T11:43:50.371Z,12.94
2023-11-03T11:46:57.550Z,12.91
2023-11-03T11:50:00.953Z,13.15
2023-11-03T11:53:02.674Z,13.10
2023-11-03T11:56:07.023Z,13.00
2023-11-03T11:59:10.670Z,12.94
2023-11-03T12:02:12.603Z,12.70
2023-11-03T12:05:18.242Z,12.70
2023-11-03T12:08:19.975Z,12.30
2023-11-03T12:11:22.015Z,12.39
2023-11-03T12:14:24.665Z,12.21
2023-11-03T12:17:26.623Z,12.08
2023-11-03T12:20:28.481Z,11.97
2023-11-03T12:23:33.505Z,12.01
2023-11-03T12:26:35.833Z,11.97
2023-11-03T12:29:37.707Z,11.89
2023-11-03T12:32:39.761Z,11.91
2023-11-03T12:35:44.442Z,11.80
2023-11-03T12:38:48.149Z,11.81
2023-11-03T12:42:11.176Z,11.71
2023-11-03T12:45:13.170Z,11.66
2023-11-03T12:48:21.760Z,11.63
2023-11-03T12:51:31.447Z,11.61
2023-11-03T12:54:33.479Z,11.66
2023-11-03T12:57:43.167Z,11.67
2023-11-03T13:00:50.334Z,11.59
2023-11-03T13:03:53.302Z,11.55
2023-11-03T13:06:58.843Z,11.42
2023-11-03T13:10:00.815Z,11.49
2023-11-03T13:13:04.294Z,11.42
2023-11-03T13:16:07.056Z,11.40
2023-11-03T13:19:09.266Z,11.38
2023-11-03T13:22:12.562Z,11.39
2023-11-03T13:25:14.548Z,11.48
2023-11-03T13:28:16.778Z,11.80
2023-11-03T13:31:18.975Z,14.79
2023-11-03T13:34:21.775Z,27.03
2023-11-03T13:37:23.473Z,24.86
2023-11-03T13:40:29.424Z,34.39
2023-11-03T13:43:31.841Z,34.39
2023-11-03T13:46:34.013Z,12.66
2023-11-03T13:49:36.927Z,14.53
2023-11-03T13:52:38.767Z,12.89
2023-11-03T13:55:40.600Z,13.30
